createdAt,value
2022-10-27T00:00:48.506Z,96299.55
2022-10-27T00:03:31.878Z,96300.59
2022-10-27T00:06:04.067Z,96305.41
2022-10-27T00:08:30.638Z,96301.62
2022-10-27T00:11:02.409Z,96306.50
2022-10-27T00:13:29.924Z,96306.16
2022-10-27T00:16:01.989Z,96309.52
2022-10-27T00:18:28.973Z,96313.41
2022-10-27T00:21:03.447Z,96306.13
2022-10-27T00:23:30.925Z,96311.03
2022-10-27T00:25:58.497Z,96312.16
2022-10-27T00:31:05.703Z,96311.84
2022-10-27T00:33:33.112Z,96308.61
2022-10-27T00:36:11.770Z,96307.58
2022-10-27T00:38:38.613Z,96308.19
2022-10-27T00:41:06.809Z,96309.19
2022-10-27T00:43:36.613Z,96309.73
2022-10-27T00:46:28.164Z,96310.60
2022-10-27T00:48:58.894Z,96307.84
2022-10-27T00:51:25.955Z,96303.85
2022-10-27T00:53:55.076Z,96299.19
2022-10-27T00:56:22.685Z,96296.06
2022-10-27T00:58:50.113Z,96299.73
2022-10-27T01:01:17.170Z,96300.29
2022-10-27T01:03:44.619Z,96296.05
2022-10-27T01:06:12.528Z,96297.55
2022-10-27T01:08:39.360Z,96299.59
2022-10-27T01:11:05.972Z,96300.70
2022-10-27T01:13:32.592Z,96302.06
2022-10-27T01:16:12.702Z,96304.31
2022-10-27T01:19:07.161Z,96302.77
2022-10-27T01:21:58.237Z,96305.16
2022-10-27T01:24:42.204Z,96303.65
2022-10-27T01:27:25.586Z,96297.59
2022-10-27T01:30:11.241Z,96301.56
2022-10-27T01:32:47.731Z,96301.40
2022-10-27T01:35:39.145Z,96304.70
2022-10-27T01:38:18.462Z,96305.30
2022-10-27T01:41:03.256Z,96305.70
2022-10-27T01:43:31.318Z,96307.30
2022-10-27T01:45:59.485Z,96306.05
2022-10-27T01:48:26.633Z,96311.81
2022-10-27T01:51:01.927Z,96316.08
2022-10-27T01:53:31.415Z,96314.52
2022-10-27T01:56:04.283Z,96318.73
2022-10-27T01:59:11.543Z,96317.08
2022-10-27T02:02:02.009Z,96318.33
2022-10-27T02:04:34.389Z,96316.36
2022-10-27T02:07:22.494Z,96318.86
2022-10-27T02:10:03.452Z,96319.86
2022-10-27T02:12:32.585Z,96324.13
2022-10-27T02:15:03.480Z,96328.37
2022-10-27T02:17:38.953Z,96322.73
2022-10-27T02:20:13.068Z,96326.56
2022-10-27T02:22:43.180Z,96325.64
2022-10-27T02:25:10.067Z,96324.77
2022-10-27T02:27:41.665Z,96327.20
2022-10-27T02:30:08.700Z,96326.48
2022-10-27T02:32:36.492Z,96328.23
2022-10-27T02:35:05.139Z,96327.61
2022-10-27T02:37:34.960Z,96326.41
2022-10-27T02:40:01.958Z,96327.76
2022-10-27T02:42:28.716Z,96331.58
2022-10-27T02:44:55.330Z,96337.10
2022-10-27T02:47:21.969Z,96336.84
2022-10-27T02:49:48.745Z,96336.05
2022-10-27T02:52:15.867Z,96342.98
2022-10-27T02:54:47.454Z,96339.73
2022-10-27T02:57:16.080Z,96342.73
2022-10-27T02:59:42.927Z,96346.56
2022-10-27T03:02:09.845Z,96348.47
2022-10-27T03:04:36.584Z,96349.26
2022-10-27T03:07:03.862Z,96346.92
2022-10-27T03:09:30.471Z,96350.66
2022-10-27T03:11:57.173Z,96352.16
2022-10-27T03:14:23.941Z,96357.20
2022-10-27T03:16:50.456Z,96357.84
2022-10-27T03:19:17.005Z,96359.17
2022-10-27T03:21:43.622Z,96355.52
2022-10-27T03:24:10.731Z,96359.25
2022-10-27T03:26:37.502Z,96360.63
2022-10-27T03:29:07.407Z,96363.52
2022-10-27T03:31:34.097Z,96363.80
2022-10-27T03:34:00.815Z,96362.39
2022-10-27T03:36:27.501Z,96366.58
2022-10-27T03:38:54.277Z,96370.17
2022-10-27T03:41:21.111Z,96368.95
2022-10-27T03:43:47.627Z,96370.91
2022-10-27T03:46:14.192Z,96369.98
2022-10-27T03:48:40.755Z,96369.37
2022-10-27T03:51:08.749Z,96375.54
2022-10-27T03:53:35.626Z,96376.30
2022-10-27T03:56:02.302Z,96378.27
2022-10-27T03:58:28.886Z,96384.67
2022-10-27T04:01:00.608Z,96380.05
2022-10-27T04:03:27.324Z,96380.70
2022-10-27T04:05:53.934Z,96380.98
2022-10-27T04:08:20.476Z,96379.11
2022-10-27T04:10:47.080Z,96382.80
2022-10-27T04:13:13.564Z,96382.06
2022-10-27T04:15:40.095Z,96383.16
2022-10-27T04:18:07.187Z,96388.44
2022-10-27T04:20:33.779Z,96389.67
2022-10-27T04:23:00.332Z,96386.79
2022-10-27T04:25:27.243Z,96392.00
2022-10-27T04:28:07.744Z,96387.70
2022-10-27T04:30:35.102Z,96389.65
2022-10-27T04:33:02.476Z,96391.93
2022-10-27T04:35:29.524Z,96391.17
2022-10-27T04:37:56.916Z,96396.46
2022-10-27T04:40:23.897Z,96397.02
2022-10-27T04:42:50.642Z,96395.70
2022-10-27T04:45:17.461Z,96394.55
2022-10-27T04:47:44.572Z,96394.14
2022-10-27T04:50:12.839Z,96393.58
2022-10-27T04:52:43.518Z,96395.88
2022-10-27T04:55:11.124Z,96398.69
2022-10-27T04:57:38.017Z,96400.62
2022-10-27T05:00:05.498Z,96401.17
2022-10-27T05:02:34.705Z,96402.91
2022-10-27T05:05:04.937Z,96408.10
2022-10-27T05:07:31.593Z,96405.95
2022-10-27T05:09:58.166Z,96406.02
2022-10-27T05:12:24.847Z,96403.58
2022-10-27T05:14:51.770Z,96406.65
2022-10-27T05:17:19.665Z,96414.33
2022-10-27T05:19:46.729Z,96414.22
2022-10-27T05:22:13.426Z,96415.36
2022-10-27T05:24:40.214Z,96416.58
2022-10-27T05:27:06.891Z,96420.41
2022-10-27T05:29:33.719Z,96423.80
2022-10-27T05:32:00.498Z,96425.00
2022-10-27T05:34:27.208Z,96428.81
2022-10-27T05:36:54.083Z,96432.11
2022-10-27T05:39:20.759Z,96436.40
2022-10-27T05:41:47.675Z,96442.03
2022-10-27T05:44:14.390Z,96443.23
2022-10-27T05:46:41.220Z,96446.11
2022-10-27T05:49:07.978Z,96451.35
2022-10-27T05:51:34.877Z,96453.95
2022-10-27T05:54:01.933Z,96456.09
2022-10-27T05:56:29.069Z,96456.50
2022-10-27T05:58:55.757Z,96456.75
2022-10-27T06:01:22.566Z,96453.52
2022-10-27T06:03:49.511Z,96457.36
2022-10-27T06:06:16.452Z,96454.69
2022-10-27T06:08:43.121Z,96457.57
2022-10-27T06:11:09.877Z,96460.58
2022-10-27T06:13:36.498Z,96463.66
2022-10-27T06:16:03.488Z,96466.60
2022-10-27T06:18:30.048Z,96471.59
2022-10-27T06:20:57.080Z,96476.08
2022-10-27T06:23:24.523Z,96474.71
2022-10-27T06:25:51.276Z,96476.65
2022-10-27T06:28:17.967Z,96478.21
2022-10-27T06:30:44.721Z,96484.27
2022-10-27T06:33:11.501Z,96477.27
2022-10-27T06:35:38.301Z,96475.02
2022-10-27T06:38:05.048Z,96478.09
2022-10-27T06:40:31.853Z,96475.73
2022-10-27T06:43:07.532Z,96471.17
2022-10-27T06:45:36.246Z,96468.63
2022-10-27T06:48:06.943Z,96472.64
2022-10-27T06:50:34.787Z,96473.85
2022-10-27T06:53:02.490Z,96473.23
2022-10-27T06:55:29.618Z,96470.33
2022-10-27T06:57:56.627Z,96471.81
2022-10-27T07:00:24.552Z,96470.73
2022-10-27T07:02:51.701Z,96472.77
2022-10-27T07:05:18.966Z,96468.90
2022-10-27T07:07:47.708Z,96471.02
2022-10-27T07:10:15.195Z,96467.59
2022-10-27T07:12:56.972Z,96468.98
2022-10-27T07:15:25.613Z,96473.00
2022-10-27T07:18:06.212Z,96475.77
2022-10-27T07:20:34.444Z,96476.29
2022-10-27T07:23:02.541Z,96478.10
2022-10-27T07:25:30.653Z,96478.67
2022-10-27T07:27:57.629Z,96478.45
2022-10-27T07:30:27.357Z,96477.48
2022-10-27T07:32:55.109Z,96476.81
2022-10-27T07:35:22.593Z,96478.52
2022-10-27T07:37:50.001Z,96478.58
2022-10-27T07:40:18.977Z,96484.13
2022-10-27T07:42:50.925Z,96480.70
2022-10-27T07:45:20.034Z,96484.14
2022-10-27T07:47:49.691Z,96485.86
2022-10-27T07:50:18.858Z,96494.98
2022-10-27T07:52:51.027Z,96494.40
2022-10-27T07:55:20.895Z,96495.79
2022-10-27T07:57:47.803Z,96497.89
2022-10-27T08:00:17.046Z,96499.96
2022-10-27T08:02:44.169Z,96505.63
2022-10-27T08:05:11.050Z,96506.54
2022-10-27T08:07:38.097Z,96508.16
2022-10-27T08:10:05.863Z,96513.89
2022-10-27T08:12:32.805Z,96515.02
2022-10-27T08:15:00.035Z,96514.22
2022-10-27T08:17:28.246Z,96517.24
2022-10-27T08:19:54.916Z,96515.50
2022-10-27T08:22:21.699Z,96517.60
2022-10-27T08:24:48.464Z,96517.20
2022-10-27T08:27:15.574Z,96515.87
2022-10-27T08:29:42.194Z,96520.98
2022-10-27T08:32:11.785Z,96523.85
2022-10-27T08:34:38.385Z,96523.73
2022-10-27T08:37:05.057Z,96522.67
2022-10-27T08:39:31.829Z,96521.75
2022-10-27T08:42:23.166Z,96521.91
2022-10-27T08:44:58.902Z,96526.98
2022-10-27T08:47:26.124Z,96524.33
2022-10-27T08:49:57.079Z,96526.08
2022-10-27T08:52:38.549Z,96526.20
2022-10-27T08:55:14.310Z,96524.94
2022-10-27T08:57:48.444Z,96523.16
2022-10-27T09:00:15.555Z,96525.55
2022-10-27T09:02:45.346Z,96520.33
2022-10-27T09:05:44.889Z,96521.65
2022-10-27T09:08:22.690Z,96525.42
2022-10-27T09:11:00.913Z,96527.77
2022-10-27T09:13:49.060Z,96529.15
2022-10-27T09:16:55.299Z,96530.14
2022-10-27T09:19:33.387Z,96526.84
2022-10-27T09:22:03.838Z,96528.91
2022-10-27T09:24:34.581Z,96526.77
2022-10-27T09:27:03.183Z,96528.80
2022-10-27T09:29:31.091Z,96529.59
2022-10-27T09:32:26.454Z,96525.27
2022-10-27T09:35:20.330Z,96531.75
2022-10-27T09:37:48.242Z,96527.06
2022-10-27T09:40:18.704Z,96525.80
2022-10-27T09:42:49.405Z,96525.95
2022-10-27T09:45:25.666Z,96527.48
2022-10-27T09:47:57.549Z,96522.54
2022-10-27T09:50:36.292Z,96519.85
2022-10-27T09:53:04.060Z,96515.55
2022-10-27T09:55:56.852Z,96515.29
2022-10-27T09:58:23.648Z,96510.79
2022-10-27T10:01:01.557Z,96508.89
2022-10-27T10:03:28.592Z,96509.27
2022-10-27T10:06:04.934Z,96506.02
2022-10-27T10:08:35.380Z,96501.73
2022-10-27T10:11:18.606Z,96498.55
2022-10-27T10:14:00.332Z,96500.84
2022-10-27T10:16:28.552Z,96496.80
2022-10-27T10:19:03.690Z,96501.42
2022-10-27T10:21:49.299Z,96501.04
2022-10-27T10:24:22.102Z,96497.23
2022-10-27T10:26:53.451Z,96496.21
2022-10-27T10:29:30.143Z,96496.27
2022-10-27T10:32:07.848Z,96490.48
2022-10-27T10:34:35.129Z,96489.89
2022-10-27T10:37:02.938Z,96488.36
2022-10-27T10:39:36.197Z,96487.07
2022-10-27T10:42:09.206Z,96484.86
2022-10-27T10:44:37.030Z,96486.40
2022-10-27T10:47:04.680Z,96483.52
2022-10-27T10:49:41.071Z,96487.50
2022-10-27T10:52:18.716Z,96485.58
2022-10-27T10:54:46.841Z,96490.00
2022-10-27T10:57:27.920Z,96487.98
2022-10-27T10:59:58.084Z,96490.09
2022-10-27T11:02:32.703Z,96492.77
2022-10-27T11:05:18.454Z,96491.45
2022-10-27T11:07:47.032Z,96495.69
2022-10-27T11:10:24.959Z,96495.66
2022-10-27T11:13:33.838Z,96499.64
2022-10-27T11:16:04.189Z,96495.79
2022-10-27T11:18:49.780Z,96489.44
2022-10-27T11:21:28.686Z,96492.98
2022-10-27T11:24:13.771Z,96493.79
2022-10-27T11:26:52.268Z,96489.98
2022-10-27T11:29:42.113Z,96489.16
2022-10-27T11:32:22.076Z,96489.13
2022-10-27T11:35:37.917Z,96482.36
2022-10-27T11:38:15.615Z,96484.14
2022-10-27T11:40:46.191Z,96483.42
2022-10-27T11:43:43.229Z,96480.85
2022-10-27T11:46:19.974Z,96479.50
2022-10-27T11:48:55.678Z,96478.89
2022-10-27T11:51:34.951Z,96479.38
2022-10-27T11:54:02.462Z,96477.98
2022-10-27T11:57:11.606Z,96477.84
2022-10-27T12:00:03.634Z,96471.77
2022-10-27T12:02:57.553Z,96472.16
2022-10-27T12:05:34.566Z,96468.23
2022-10-27T12:08:01.152Z,96467.69
2022-10-27T12:10:40.638Z,96468.40
2022-10-27T12:13:29.588Z,96463.25
2022-10-27T12:15:59.316Z,96462.63
2022-10-27T12:18:46.115Z,96460.08
2022-10-27T12:21:35.844Z,96463.27
2022-10-27T12:24:48.948Z,96457.69
2022-10-27T12:27:21.906Z,96458.02
2022-10-27T12:29:57.166Z,96456.73
2022-10-27T12:32:36.264Z,96459.66
2022-10-27T12:35:12.822Z,96461.00
2022-10-27T12:38:02.688Z,96461.11
2022-10-27T12:40:44.695Z,96458.89
2022-10-27T12:43:37.654Z,96460.16
2022-10-27T12:46:25.856Z,96459.96
2022-10-27T12:49:10.469Z,96459.10
2022-10-27T12:52:01.714Z,96457.63
2022-10-27T12:54:35.552Z,96457.79
2022-10-27T12:57:35.888Z,96456.00
2022-10-27T13:00:07.763Z,96457.65
2022-10-27T13:03:09.741Z,96456.27
2022-10-27T13:05:47.115Z,96453.15
2022-10-27T13:08:31.794Z,96454.73
2022-10-27T13:11:04.288Z,96453.34
2022-10-27T13:13:58.932Z,96456.34
2022-10-27T13:16:33.877Z,96456.48
2022-10-27T13:19:31.434Z,96464.55
2022-10-27T13:22:30.643Z,96462.76
2022-10-27T13:25:15.790Z,96464.09
2022-10-27T13:27:51.713Z,96463.13
2022-10-27T13:30:23.677Z,96460.79
2022-10-27T13:32:54.242Z,96463.47
2022-10-27T13:35:28.276Z,96467.73
2022-10-27T13:37:55.775Z,96466.91
2022-10-27T13:40:22.629Z,96464.60
2022-10-27T13:43:12.035Z,96461.20
2022-10-27T13:45:48.549Z,96464.45
2022-10-27T13:48:15.717Z,96463.13
2022-10-27T13:50:46.717Z,96464.42
2022-10-27T13:53:14.471Z,96465.64
2022-10-27T13:55:43.038Z,96466.14
2022-10-27T13:58:18.877Z,96466.94
2022-10-27T14:01:27.608Z,96467.95
2022-10-27T14:04:21.123Z,96472.34
2022-10-27T14:06:56.978Z,96466.70
2022-10-27T14:09:35.101Z,96470.54
2022-10-27T14:12:20.517Z,96470.61
2022-10-27T14:14:51.405Z,96476.28
2022-10-27T14:17:22.960Z,96473.95
2022-10-27T14:19:57.640Z,96473.54
2022-10-27T14:22:30.016Z,96472.44
2022-10-27T14:25:01.968Z,96476.05
2022-10-27T14:27:28.729Z,96479.32
2022-10-27T14:30:13.363Z,96476.21
2022-10-27T14:32:40.105Z,96476.79
2022-10-27T14:35:25.731Z,96474.85
2022-10-27T14:37:56.887Z,96482.21
2022-10-27T14:40:36.059Z,96487.20
2022-10-27T14:43:07.038Z,96487.67
2022-10-27T14:45:33.739Z,96489.92
2022-10-27T14:48:04.147Z,96492.84
2022-10-27T14:50:33.928Z,96494.70
2022-10-27T14:53:02.670Z,96497.50
2022-10-27T14:55:34.604Z,96495.35
2022-10-27T14:58:01.773Z,96498.56
2022-10-27T15:00:30.351Z,96498.66
2022-10-27T15:03:00.149Z,96499.72
2022-10-27T15:05:35.382Z,96504.11
2022-10-27T15:08:05.014Z,96500.12
2022-10-27T15:10:35.668Z,96499.47
2022-10-27T15:13:04.261Z,96501.14
2022-10-27T15:15:33.019Z,96498.63
2022-10-27T15:18:04.758Z,96492.39
2022-10-27T15:20:32.972Z,96490.58
2022-10-27T15:23:00.572Z,96489.14
2022-10-27T15:25:30.308Z,96491.50
2022-10-27T15:28:01.337Z,96489.77
2022-10-27T15:30:28.916Z,96490.80
2022-10-27T15:32:56.895Z,96494.02
2022-10-27T15:35:34.817Z,96496.58
2022-10-27T15:38:24.716Z,96499.44
2022-10-27T15:40:54.335Z,96499.70
2022-10-27T15:43:26.999Z,96503.02
2022-10-27T15:46:30.773Z,96504.06
2022-10-27T15:49:01.171Z,96500.48
2022-10-27T15:51:49.283Z,96503.07
2022-10-27T15:54:22.412Z,96502.73
2022-10-27T15:56:53.950Z,96506.09
2022-10-27T15:59:27.345Z,96509.13
2022-10-27T16:02:20.931Z,96509.73
2022-10-27T16:04:50.032Z,96507.79
2022-10-27T16:07:28.182Z,96511.55
2022-10-27T16:09:54.797Z,96518.45
2022-10-27T16:12:36.380Z,96522.88
2022-10-27T16:15:06.537Z,96522.05
2022-10-27T16:17:42.088Z,96526.83
2022-10-27T16:20:18.331Z,96531.68
2022-10-27T16:22:45.968Z,96531.88
2022-10-27T16:25:18.197Z,96532.19
2022-10-27T16:27:45.500Z,96537.63
2022-10-27T16:30:18.068Z,96537.56
2022-10-27T16:32:46.529Z,96538.48
2022-10-27T16:35:14.365Z,96539.39
2022-10-27T16:37:41.685Z,96542.33
2022-10-27T16:40:17.892Z,96543.92
2022-10-27T16:42:52.881Z,96546.61
2022-10-27T16:45:20.568Z,96550.85
2022-10-27T16:47:51.423Z,96551.52
2022-10-27T16:50:19.992Z,96551.17
2022-10-27T16:52:54.144Z,96552.55
2022-10-27T16:55:21.678Z,96556.96
2022-10-27T16:57:49.799Z,96554.70
2022-10-27T17:00:17.437Z,96553.44
2022-10-27T17:02:44.165Z,96553.46
2022-10-27T17:05:11.101Z,96554.30
2022-10-27T17:07:38.456Z,96559.36
2022-10-27T17:10:05.625Z,96559.45
2022-10-27T17:12:32.374Z,96566.61
2022-10-27T17:14:58.987Z,96570.17
2022-10-27T17:17:25.765Z,96577.52
2022-10-27T17:19:52.541Z,96575.87
2022-10-27T17:22:19.103Z,96573.05
2022-10-27T17:24:45.647Z,96572.27
2022-10-27T17:27:12.357Z,96572.73
2022-10-27T17:29:40.792Z,96575.46
2022-10-27T17:32:07.502Z,96574.56
2022-10-27T17:34:34.101Z,96583.85
2022-10-27T17:37:00.652Z,96579.38
2022-10-27T17:39:27.312Z,96582.30
2022-10-27T17:41:54.138Z,96580.30
2022-10-27T17:44:20.683Z,96579.69
2022-10-27T17:46:47.350Z,96584.34
2022-10-27T17:49:13.994Z,96586.11
2022-10-27T17:51:40.927Z,96587.24
2022-10-27T17:54:08.850Z,96590.50
2022-10-27T17:56:36.528Z,96586.98
2022-10-27T17:59:06.156Z,96585.10
2022-10-27T18:01:33.865Z,96581.75
2022-10-27T18:04:06.205Z,96580.33
2022-10-27T18:06:33.848Z,96584.30
2022-10-27T18:09:01.699Z,96588.48
2022-10-27T18:11:30.471Z,96589.60
2022-10-27T18:14:03.852Z,96592.97
2022-10-27T18:16:35.249Z,96595.41
2022-10-27T18:19:03.083Z,96592.73
2022-10-27T18:21:32.258Z,96595.67
2022-10-27T18:24:00.285Z,96595.20
2022-10-27T18:26:33.587Z,96594.98
2022-10-27T18:29:00.311Z,96592.91
2022-10-27T18:31:32.951Z,96588.89
2022-10-27T18:33:59.560Z,96587.67
2022-10-27T18:36:26.483Z,96587.25
2022-10-27T18:39:00.612Z,96590.07
2022-10-27T18:41:30.600Z,96590.52
2022-10-27T18:43:57.160Z,96592.95
2022-10-27T18:46:24.575Z,96594.99
2022-10-27T18:48:58.288Z,96598.02
2022-10-27T18:51:27.247Z,96599.59
2022-10-27T18:53:55.917Z,96598.48
2022-10-27T18:56:22.953Z,96601.72
2022-10-27T18:58:54.050Z,96597.52
2022-10-27T19:01:22.176Z,96601.77
2022-10-27T19:03:53.202Z,96606.56
2022-10-27T19:06:20.176Z,96608.10
2022-10-27T19:08:47.146Z,96606.36
2022-10-27T19:11:15.448Z,96606.29
2022-10-27T19:13:44.742Z,96615.12
2022-10-27T19:16:14.055Z,96620.38
2022-10-27T19:18:40.764Z,96618.02
2022-10-27T19:21:11.997Z,96615.30
2022-10-27T19:23:40.280Z,96621.16
2022-10-27T19:26:12.949Z,96621.65
2022-10-27T19:28:40.930Z,96626.33
2022-10-27T19:31:14.508Z,96629.23
2022-10-27T19:33:44.602Z,96630.84
2022-10-27T19:36:26.685Z,96629.92
2022-10-27T19:38:54.129Z,96633.46
2022-10-27T19:41:24.031Z,96634.55
2022-10-27T19:43:52.931Z,96638.10
2022-10-27T19:46:20.346Z,96644.63
2022-10-27T19:48:54.965Z,96643.19
2022-10-27T19:51:24.126Z,96643.89
2022-10-27T19:53:52.588Z,96645.87
2022-10-27T19:56:19.197Z,96650.48
2022-10-27T19:58:57.188Z,96650.52
2022-10-27T20:01:31.408Z,96647.30
2022-10-27T20:04:06.509Z,96652.45
2022-10-27T20:06:33.376Z,96649.48
2022-10-27T20:09:00.773Z,96649.73
2022-10-27T20:11:29.898Z,96651.69
2022-10-27T20:13:57.234Z,96650.56
2022-10-27T20:16:27.122Z,96657.20
2022-10-27T20:18:55.592Z,96657.30
2022-10-27T20:21:22.189Z,96657.02
2022-10-27T20:23:48.729Z,96659.16
2022-10-27T20:26:28.971Z,96655.49
2022-10-27T20:28:58.622Z,96661.54
2022-10-27T20:31:25.708Z,96659.67
2022-10-27T20:33:52.636Z,96658.91
2022-10-27T20:36:19.705Z,96660.17
2022-10-27T20:38:46.442Z,96657.02
2022-10-27T20:41:18.125Z,96657.38
2022-10-27T20:43:45.301Z,96662.35
2022-10-27T20:46:14.039Z,96659.58
2022-10-27T20:48:40.889Z,96664.54
2022-10-27T20:51:11.217Z,96663.80
2022-10-27T20:53:39.045Z,96664.54
2022-10-27T20:56:07.102Z,96659.58
2022-10-27T20:58:33.746Z,96660.34
2022-10-27T21:01:22.549Z,96662.95
2022-10-27T21:03:52.230Z,96660.90
2022-10-27T21:06:19.277Z,96662.39
2022-10-27T21:08:45.935Z,96658.84
2022-10-27T21:11:12.485Z,96657.95
2022-10-27T21:13:39.080Z,96656.50
2022-10-27T21:16:07.028Z,96654.45
2022-10-27T21:18:33.699Z,96655.83
2022-10-27T21:21:09.750Z,96654.49
2022-10-27T21:23:36.341Z,96656.23
2022-10-27T21:26:03.163Z,96650.70
2022-10-27T21:28:29.805Z,96652.42
2022-10-27T21:30:56.437Z,96652.35
2022-10-27T21:33:26.543Z,96650.81
2022-10-27T21:35:53.146Z,96648.20
2022-10-27T21:38:19.669Z,96646.48
2022-10-27T21:40:46.249Z,96646.48
2022-10-27T21:43:12.792Z,96644.59
2022-10-27T21:45:39.309Z,96647.76
2022-10-27T21:48:05.920Z,96646.60
2022-10-27T21:50:32.606Z,96643.67
2022-10-27T21:52:59.243Z,96642.72
2022-10-27T21:55:25.743Z,96645.45
2022-10-27T21:57:52.614Z,96644.41
2022-10-27T22:00:19.405Z,96643.84
2022-10-27T22:02:45.990Z,96642.20
2022-10-27T22:05:12.553Z,96644.45
2022-10-27T22:07:39.073Z,96647.65
2022-10-27T22:10:06.342Z,96645.77
2022-10-27T22:12:32.938Z,96647.42
2022-10-27T22:14:59.635Z,96646.00
2022-10-27T22:17:26.364Z,96643.90
2022-10-27T22:19:52.950Z,96647.85
2022-10-27T22:22:19.467Z,96648.52
2022-10-27T22:24:46.048Z,96649.31
2022-10-27T22:27:14.561Z,96650.23
2022-10-27T22:29:43.909Z,96653.98
2022-10-27T22:32:10.707Z,96651.65
2022-10-27T22:34:37.217Z,96651.77
2022-10-27T22:37:03.766Z,96656.38
2022-10-27T22:39:30.265Z,96655.01
2022-10-27T22:41:56.900Z,96653.21
2022-10-27T22:44:23.648Z,96651.77
2022-10-27T22:46:50.151Z,96654.40
2022-10-27T22:49:16.781Z,96653.45
2022-10-27T22:51:43.337Z,96653.40
2022-10-27T22:54:09.920Z,96650.88
2022-10-27T22:56:36.492Z,96655.14
2022-10-27T22:59:07.664Z,96653.29
2022-10-27T23:01:37.215Z,96654.05
2022-10-27T23:04:05.494Z,96651.33
2022-10-27T23:06:35.497Z,96652.23
2022-10-27T23:09:16.541Z,96654.30
2022-10-27T23:11:44.119Z,96654.63
2022-10-27T23:14:12.784Z,96654.05
2022-10-27T23:16:40.100Z,96657.22
2022-10-27T23:19:07.244Z,96658.98
2022-10-27T23:21:34.964Z,96661.07
2022-10-27T23:24:02.909Z,96663.02
2022-10-27T23:26:31.638Z,96661.40
2022-10-27T23:29:00.763Z,96662.80
2022-10-27T23:31:28.929Z,96663.85
2022-10-27T23:34:01.193Z,96665.58
2022-10-27T23:36:30.381Z,96664.93
2022-10-27T23:38:57.949Z,96667.54
2022-10-27T23:41:24.990Z,96669.11
2022-10-27T23:43:53.177Z,96670.08
2022-10-27T23:46:20.813Z,96666.52
2022-10-27T23:48:47.684Z,96665.32
2022-10-27T23:51:15.164Z,96665.52
2022-10-27T23:53:41.820Z,96661.02
2022-10-27T23:56:10.367Z,96667.78
2022-10-27T23:58:39.315Z,96667.92
